createdAt,value
2023-01-28T00:01:20.040Z,17.50
2023-01-28T00:03:51.152Z,15.90
2023-01-28T00:06:19.099Z,15.75
2023-01-28T00:08:45.800Z,15.38
2023-01-28T00:11:13.533Z,17.60
2023-01-28T00:13:40.798Z,17.40
2023-01-28T00:16:09.714Z,14.45
2023-01-28T00:18:36.942Z,18.83
2023-01-28T00:21:10.474Z,15.38
2023-01-28T00:23:38.584Z,15.70
2023-01-28T00:26:07.772Z,13.90
2023-01-28T00:28:34.405Z,17.43
2023-01-28T00:31:07.340Z,16.80
2023-01-28T00:33:34.017Z,14.38
2023-01-28T00:36:02.014Z,18.25
2023-01-28T00:38:29.704Z,16.85
2023-01-28T00:40:56.482Z,15.75
2023-01-28T00:43:23.152Z,16.70
2023-01-28T00:45:50.422Z,15.95
2023-01-28T00:48:17.260Z,15.85
2023-01-28T00:50:45.610Z,20.58
2023-01-28T00:53:12.296Z,16.52
2023-01-28T00:55:39.144Z,16.98
2023-01-28T00:58:06.041Z,16.38
2023-01-28T01:00:32.724Z,18.50
2023-01-28T01:03:00.281Z,16.05
2023-01-28T01:05:27.034Z,19.20
2023-01-28T01:07:53.689Z,16.52
2023-01-28T01:10:20.471Z,15.38
2023-01-28T01:12:48.831Z,15.48
2023-01-28T01:15:17.201Z,16.77
2023-01-28T01:17:46.619Z,17.98
2023-01-28T01:20:17.011Z,15.48
2023-01-28T01:22:43.787Z,18.13
2023-01-28T01:25:11.710Z,16.20
2023-01-28T01:27:38.466Z,18.42
2023-01-28T01:30:05.909Z,16.33
2023-01-28T01:32:35.178Z,17.13
2023-01-28T01:35:05.900Z,17.55
2023-01-28T01:37:32.970Z,18.40
2023-01-28T01:40:01.956Z,17.17
2023-01-28T01:42:28.836Z,17.00
2023-01-28T01:44:58.237Z,16.27
2023-01-28T01:47:47.083Z,17.20
2023-01-28T01:50:20.302Z,16.80
2023-01-28T01:52:50.978Z,21.35
2023-01-28T01:55:21.116Z,16.85
2023-01-28T02:00:17.150Z,15.60
2023-01-28T02:02:49.259Z,18.50
2023-01-28T02:05:19.134Z,16.02
2023-01-28T02:07:48.174Z,17.92
2023-01-28T02:10:15.755Z,17.40
2023-01-28T02:13:08.917Z,17.38
2023-01-28T02:15:36.055Z,16.73
2023-01-28T02:18:02.797Z,16.42
2023-01-28T02:20:55.297Z,17.98
2023-01-28T02:23:35.367Z,16.05
2023-01-28T02:29:16.698Z,15.85
2023-01-28T02:31:59.127Z,18.42
2023-01-28T02:34:38.429Z,17.83
2023-01-28T02:37:09.068Z,16.52
2023-01-28T02:39:42.249Z,22.38
2023-01-28T02:42:22.353Z,18.05
2023-01-28T02:47:35.110Z,16.95
2023-01-28T02:50:09.151Z,18.23
2023-01-28T02:53:08.411Z,17.65
2023-01-28T02:55:37.874Z,19.03
2023-01-28T02:58:29.517Z,17.85
2023-01-28T03:01:30.930Z,16.63
2023-01-28T03:04:03.771Z,18.42
2023-01-28T03:06:39.651Z,19.27
2023-01-28T03:09:22.452Z,18.23
2023-01-28T03:12:14.253Z,18.63
2023-01-28T03:15:01.858Z,18.60
2023-01-28T03:18:11.465Z,18.20
2023-01-28T03:21:09.654Z,18.52
2023-01-28T03:24:11.991Z,16.90
2023-01-28T03:27:12.637Z,18.20
2023-01-28T03:30:00.656Z,17.98
2023-01-28T03:32:46.910Z,18.20
2023-01-28T03:35:36.768Z,16.58
2023-01-28T03:38:18.704Z,15.35
2023-01-28T03:41:01.651Z,16.15
2023-01-28T03:43:29.156Z,15.45
2023-01-28T03:45:56.531Z,16.02
2023-01-28T03:48:27.810Z,14.82
2023-01-28T03:51:00.365Z,16.58
2023-01-28T03:53:28.231Z,16.30
2023-01-28T03:55:56.735Z,16.27
2023-01-28T03:58:46.353Z,16.45
2023-01-28T04:01:13.820Z,15.98
2023-01-28T04:03:40.519Z,17.50
2023-01-28T04:06:09.549Z,16.10
2023-01-28T04:08:36.248Z,14.85
2023-01-28T04:11:15.591Z,16.67
2023-01-28T04:13:43.144Z,15.88
2023-01-28T04:16:10.786Z,15.00
2023-01-28T04:18:37.631Z,17.15
2023-01-28T04:21:04.475Z,15.80
2023-01-28T04:23:31.268Z,17.52
2023-01-28T04:25:57.918Z,12.27
2023-01-28T04:28:24.693Z,15.15
2023-01-28T04:30:52.559Z,12.73
2023-01-28T04:33:19.456Z,14.60
2023-01-28T04:35:46.149Z,13.57
2023-01-28T04:38:12.782Z,13.90
2023-01-28T04:40:39.380Z,13.02
2023-01-28T04:43:06.042Z,12.63
2023-01-28T04:45:32.721Z,11.13
2023-01-28T04:47:59.404Z,14.23
2023-01-28T04:50:26.266Z,14.45
2023-01-28T04:52:52.905Z,13.00
2023-01-28T04:55:19.516Z,14.95
2023-01-28T04:57:48.720Z,15.18
2023-01-28T05:00:15.871Z,14.07
2023-01-28T05:02:42.694Z,12.60
2023-01-28T05:05:09.786Z,13.90
2023-01-28T05:07:36.897Z,12.32
2023-01-28T05:10:04.057Z,13.68
2023-01-28T05:12:32.945Z,13.38
2023-01-28T05:15:00.634Z,13.57
2023-01-28T05:17:28.328Z,14.73
2023-01-28T05:19:55.082Z,15.93
2023-01-28T05:22:22.101Z,13.57
2023-01-28T05:24:48.742Z,14.00
2023-01-28T05:27:15.399Z,15.70
2023-01-28T05:29:42.145Z,12.52
2023-01-28T05:32:09.040Z,12.65
2023-01-28T05:34:35.858Z,12.57
2023-01-28T05:37:02.530Z,13.88
2023-01-28T05:39:29.140Z,12.32
2023-01-28T05:41:55.768Z,15.45
2023-01-28T05:44:22.507Z,13.23
2023-01-28T05:46:49.184Z,14.02
2023-01-28T05:49:16.651Z,13.60
2023-01-28T05:51:43.528Z,13.77
2023-01-28T05:54:10.550Z,14.60
2023-01-28T05:56:37.212Z,12.43
2023-01-28T05:59:05.382Z,13.35
2023-01-28T06:01:32.269Z,15.25
2023-01-28T06:04:00.406Z,13.30
2023-01-28T06:06:27.094Z,11.65
2023-01-28T06:08:53.745Z,12.88
2023-01-28T06:11:20.591Z,10.23
2023-01-28T06:13:47.216Z,11.27
2023-01-28T06:16:14.012Z,14.35
2023-01-28T06:18:44.689Z,10.68
2023-01-28T06:21:11.554Z,11.95
2023-01-28T06:23:38.236Z,13.50
2023-01-28T06:26:05.039Z,11.15
2023-01-28T06:28:32.048Z,12.20
2023-01-28T06:30:58.742Z,13.32
2023-01-28T06:33:25.410Z,11.07
2023-01-28T06:35:52.512Z,12.45
2023-01-28T06:38:19.522Z,14.68
2023-01-28T06:40:52.074Z,12.52
2023-01-28T06:43:18.964Z,13.40
2023-01-28T06:45:45.602Z,12.45
2023-01-28T06:48:12.611Z,12.23
2023-01-28T06:50:39.252Z,12.27
2023-01-28T06:53:05.893Z,12.68
2023-01-28T06:55:32.514Z,12.85
2023-01-28T06:57:59.213Z,11.85
2023-01-28T07:00:25.919Z,13.00
2023-01-28T07:02:56.391Z,14.20
2023-01-28T07:05:23.742Z,12.80
2023-01-28T07:07:50.627Z,11.18
2023-01-28T07:10:17.761Z,12.90
2023-01-28T07:12:45.926Z,12.65
2023-01-28T07:15:15.252Z,12.60
2023-01-28T07:17:45.547Z,13.98
2023-01-28T07:20:15.376Z,14.68
2023-01-28T07:25:13.401Z,11.10
2023-01-28T07:27:45.692Z,12.13
2023-01-28T07:30:12.833Z,11.60
2023-01-28T07:32:39.638Z,13.43
2023-01-28T07:35:06.899Z,11.25
2023-01-28T07:37:33.564Z,11.25
2023-01-28T07:40:00.219Z,12.75
2023-01-28T07:42:26.850Z,13.77
2023-01-28T07:44:53.562Z,13.00
2023-01-28T07:47:20.303Z,12.05
2023-01-28T07:49:47.796Z,13.88
2023-01-28T07:52:15.294Z,10.82
2023-01-28T07:54:41.937Z,12.23
2023-01-28T07:57:12.183Z,13.35
2023-01-28T07:59:38.835Z,12.70
2023-01-28T08:02:05.563Z,11.95
2023-01-28T08:04:32.268Z,11.15
2023-01-28T08:06:59.268Z,12.77
2023-01-28T08:09:25.984Z,9.88
2023-01-28T08:11:53.384Z,10.82
2023-01-28T08:14:20.079Z,10.45
2023-01-28T08:16:46.714Z,10.73
2023-01-28T08:19:13.477Z,9.10
2023-01-28T08:21:40.116Z,10.90
2023-01-28T08:24:07.092Z,11.05
2023-01-28T08:26:33.808Z,10.95
2023-01-28T08:29:00.478Z,8.20
2023-01-28T08:31:29.215Z,8.52
2023-01-28T08:33:56.051Z,9.20
2023-01-28T08:36:23.189Z,10.20
2023-01-28T08:38:54.382Z,9.35
2023-01-28T08:41:22.784Z,8.18
2023-01-28T08:43:49.526Z,7.75
2023-01-28T08:46:16.820Z,9.10
2023-01-28T08:48:43.580Z,9.10
2023-01-28T08:51:10.250Z,10.45
2023-01-28T08:53:36.960Z,11.10
2023-01-28T08:56:03.778Z,10.32
2023-01-28T08:58:30.443Z,8.95
2023-01-28T09:00:57.265Z,12.93
2023-01-28T09:03:24.186Z,7.97
2023-01-28T09:05:50.909Z,10.30
2023-01-28T09:08:17.778Z,7.10
2023-01-28T09:10:44.567Z,8.73
2023-01-28T09:13:14.643Z,10.02
2023-01-28T09:18:08.675Z,13.35
2023-01-28T09:20:35.426Z,8.30
2023-01-28T09:23:02.524Z,9.77
2023-01-28T09:25:29.570Z,10.82
2023-01-28T09:27:57.071Z,8.50
2023-01-28T09:30:23.851Z,9.38
2023-01-28T09:32:52.065Z,7.60
2023-01-28T09:35:19.477Z,8.93
2023-01-28T09:37:46.922Z,8.18
2023-01-28T09:40:33.417Z,7.60
2023-01-28T09:43:20.878Z,6.97
2023-01-28T09:45:49.137Z,8.27
2023-01-28T09:48:22.653Z,9.25
2023-01-28T09:50:52.140Z,8.80
2023-01-28T09:53:31.876Z,8.45
2023-01-28T09:56:12.862Z,6.70
2023-01-28T09:58:41.563Z,8.18
2023-01-28T10:01:36.302Z,8.82
2023-01-28T10:04:27.108Z,8.25
2023-01-28T10:07:21.547Z,8.60
2023-01-28T10:09:56.668Z,7.32
2023-01-28T10:12:42.400Z,7.30
2023-01-28T10:15:18.138Z,9.02
2023-01-28T10:17:47.632Z,11.55
2023-01-28T10:20:19.276Z,9.25
2023-01-28T10:23:05.177Z,9.93
2023-01-28T10:25:34.746Z,7.80
2023-01-28T10:28:03.084Z,9.32
2023-01-28T10:30:38.769Z,9.02
2023-01-28T10:33:22.434Z,7.65
2023-01-28T10:35:49.808Z,7.78
2023-01-28T10:38:21.430Z,6.47
2023-01-28T10:40:48.664Z,11.18
2023-01-28T10:43:20.794Z,9.38
2023-01-28T10:46:02.899Z,10.07
2023-01-28T10:48:33.039Z,8.30
2023-01-28T10:51:04.977Z,9.00
2023-01-28T10:53:37.801Z,8.50
2023-01-28T10:56:10.527Z,12.00
2023-01-28T10:59:06.591Z,9.13
2023-01-28T11:01:50.953Z,9.43
2023-01-28T11:04:31.035Z,7.93
2023-01-28T11:07:07.024Z,9.43
2023-01-28T11:09:36.662Z,8.35
2023-01-28T11:12:23.569Z,7.95
2023-01-28T11:14:57.432Z,7.22
2023-01-28T11:17:27.334Z,9.55
2023-01-28T11:19:56.641Z,9.45
2023-01-28T11:22:43.506Z,10.20
2023-01-28T11:25:33.230Z,7.78
2023-01-28T11:28:03.213Z,7.47
2023-01-28T11:30:33.998Z,10.40
2023-01-28T11:33:19.654Z,7.70
2023-01-28T11:36:25.818Z,4.32
2023-01-28T11:39:16.973Z,4.80
2023-01-28T11:41:43.699Z,4.82
2023-01-28T11:44:23.508Z,7.82
2023-01-28T11:47:02.474Z,7.78
2023-01-28T11:49:56.945Z,13.32
2023-01-28T11:52:55.166Z,8.55
2023-01-28T11:55:42.181Z,6.28
2023-01-28T11:58:23.963Z,2.75
2023-01-28T12:01:14.502Z,3.40
2023-01-28T12:04:14.718Z,5.07
2023-01-28T12:09:23.727Z,3.72
2023-01-28T12:12:26.215Z,7.43
2023-01-28T12:15:10.901Z,7.65
2023-01-28T12:18:02.615Z,4.50
2023-01-28T12:21:00.093Z,4.75
2023-01-28T12:24:05.666Z,5.13
2023-01-28T12:27:08.105Z,5.30
2023-01-28T12:29:51.294Z,4.50
2023-01-28T12:32:44.519Z,3.90
2023-01-28T12:35:32.652Z,7.35
2023-01-28T12:38:08.039Z,4.57
2023-01-28T12:40:50.053Z,3.83
2023-01-28T12:43:48.441Z,7.15
2023-01-28T12:46:30.067Z,7.90
2023-01-28T12:49:24.050Z,10.68
2023-01-28T12:52:00.828Z,6.28
2023-01-28T12:54:53.038Z,6.47
2023-01-28T12:57:24.502Z,6.68
2023-01-28T13:00:19.895Z,8.02
2023-01-28T13:02:56.619Z,6.47
2023-01-28T13:05:31.228Z,6.70
2023-01-28T13:08:05.521Z,7.97
2023-01-28T13:10:38.505Z,8.68
2023-01-28T13:13:06.817Z,5.07
2023-01-28T13:15:40.514Z,8.63
2023-01-28T13:18:07.279Z,7.32
2023-01-28T13:20:48.916Z,9.35
2023-01-28T13:23:45.818Z,13.15
2023-01-28T13:26:18.589Z,9.10
2023-01-28T13:28:48.994Z,7.25
2023-01-28T13:31:18.876Z,7.68
2023-01-28T13:33:55.908Z,8.82
2023-01-28T13:36:37.950Z,10.27
2023-01-28T13:39:20.528Z,11.35
2023-01-28T13:41:50.028Z,9.82
2023-01-28T13:44:18.105Z,10.05
2023-01-28T13:46:44.910Z,8.13
2023-01-28T13:49:25.941Z,8.07
2023-01-28T13:52:13.327Z,9.25
2023-01-28T13:54:53.464Z,18.17
2023-01-28T14:00:26.701Z,8.80
2023-01-28T14:03:12.728Z,12.15
2023-01-28T14:06:15.952Z,4.05
2023-01-28T14:09:10.083Z,9.07
2023-01-28T14:12:04.755Z,11.18
2023-01-28T14:15:06.866Z,10.38
2023-01-28T14:17:49.624Z,10.57
2023-01-28T14:20:27.669Z,8.10
2023-01-28T14:23:04.598Z,8.07
2023-01-28T14:25:53.345Z,8.13
2023-01-28T14:28:38.876Z,6.72
2023-01-28T14:31:16.103Z,11.05
2023-01-28T14:33:43.533Z,12.18
2023-01-28T14:36:13.447Z,7.93
2023-01-28T14:38:43.839Z,9.18
2023-01-28T14:41:20.514Z,4.13
2023-01-28T14:43:47.341Z,7.63
2023-01-28T14:46:26.117Z,4.75
2023-01-28T14:49:19.139Z,8.15
2023-01-28T14:52:13.072Z,8.45
2023-01-28T14:55:06.509Z,8.07
2023-01-28T14:57:52.879Z,6.63
2023-01-28T15:00:27.296Z,10.18
2023-01-28T15:02:54.185Z,7.97
2023-01-28T15:05:26.703Z,9.90
2023-01-28T15:07:54.381Z,10.00
2023-01-28T15:10:26.780Z,8.65
2023-01-28T15:13:00.955Z,7.75
2023-01-28T15:15:38.585Z,10.98
2023-01-28T15:18:19.502Z,11.55
2023-01-28T15:20:48.218Z,9.75
2023-01-28T15:25:49.328Z,7.50
2023-01-28T15:28:34.092Z,8.65
2023-01-28T15:31:01.052Z,9.88
2023-01-28T15:33:28.009Z,7.55
2023-01-28T15:35:56.541Z,9.85
2023-01-28T15:38:26.692Z,10.30
2023-01-28T15:43:33.186Z,11.32
2023-01-28T15:46:00.690Z,8.70
2023-01-28T15:48:35.602Z,12.43
2023-01-28T15:51:26.938Z,10.82
2023-01-28T15:53:58.906Z,7.93
2023-01-28T15:56:28.203Z,10.60
2023-01-28T15:58:56.211Z,10.73
2023-01-28T16:01:23.975Z,8.60
2023-01-28T16:04:21.307Z,9.15
2023-01-28T16:06:48.223Z,8.80
2023-01-28T16:09:23.747Z,7.88
2023-01-28T16:11:50.595Z,7.30
2023-01-28T16:14:54.223Z,8.50
2023-01-28T16:17:29.111Z,9.75
2023-01-28T16:20:05.773Z,8.20
2023-01-28T16:22:36.787Z,13.55
2023-01-28T16:25:23.324Z,9.05
2023-01-28T16:27:50.253Z,8.10
2023-01-28T16:30:17.617Z,9.10
2023-01-28T16:32:44.962Z,8.82
2023-01-28T16:35:37.982Z,10.25
2023-01-28T16:38:17.265Z,8.52
2023-01-28T16:40:45.613Z,10.20
2023-01-28T16:43:13.942Z,10.15
2023-01-28T16:45:42.428Z,12.73
2023-01-28T16:48:09.108Z,17.38
2023-01-28T16:50:40.171Z,21.85
2023-01-28T16:53:18.603Z,23.33
2023-01-28T16:55:45.481Z,19.83
2023-01-28T16:58:12.793Z,23.00
2023-01-28T17:00:39.514Z,20.20
2023-01-28T17:03:06.478Z,20.20
2023-01-28T17:05:33.519Z,20.92
2023-01-28T17:08:00.262Z,21.55
2023-01-28T17:10:26.980Z,18.52
2023-01-28T17:12:54.476Z,19.73
2023-01-28T17:15:21.174Z,22.73
2023-01-28T17:17:49.230Z,24.02
2023-01-28T17:20:16.391Z,23.40
2023-01-28T17:22:43.094Z,19.48
2023-01-28T17:25:10.140Z,20.50
2023-01-28T17:27:36.902Z,20.00
2023-01-28T17:30:04.912Z,20.90
2023-01-28T17:32:31.833Z,18.17
2023-01-28T17:34:58.617Z,18.65
2023-01-28T17:37:25.313Z,19.63
2023-01-28T17:39:51.935Z,15.48
2023-01-28T17:42:18.589Z,14.82
2023-01-28T17:44:45.215Z,14.98
2023-01-28T17:47:11.831Z,14.35
2023-01-28T17:49:38.513Z,17.75
2023-01-28T17:52:05.235Z,14.82
2023-01-28T17:54:31.916Z,16.33
2023-01-28T17:56:58.674Z,16.15
2023-01-28T17:59:25.872Z,19.50
2023-01-28T18:01:54.665Z,17.15
2023-01-28T18:04:21.401Z,26.65
2023-01-28T18:06:49.273Z,18.63
2023-01-28T18:09:15.990Z,18.70
2023-01-28T18:11:42.738Z,16.70
2023-01-28T18:14:09.441Z,19.65
2023-01-28T18:16:36.115Z,19.40
2023-01-28T18:19:02.848Z,19.25
2023-01-28T18:21:53.176Z,17.00
2023-01-28T18:24:25.343Z,14.98
2023-01-28T18:26:55.401Z,15.90
2023-01-28T18:31:55.008Z,17.48
2023-01-28T18:34:23.969Z,17.50
2023-01-28T18:36:51.356Z,16.17
2023-01-28T18:39:19.302Z,16.55
2023-01-28T18:41:46.138Z,18.02
2023-01-28T18:44:14.825Z,16.13
2023-01-28T18:46:42.048Z,17.15
2023-01-28T18:49:08.732Z,16.50
2023-01-28T18:51:35.453Z,25.25
2023-01-28T18:54:04.589Z,18.85
2023-01-28T18:56:32.325Z,14.52
2023-01-28T18:59:01.283Z,15.07
2023-01-28T19:01:28.943Z,15.00
2023-01-28T19:03:57.164Z,15.73
2023-01-28T19:06:25.728Z,10.80
2023-01-28T19:08:57.635Z,10.07
2023-01-28T19:11:26.403Z,10.35
2023-01-28T19:13:53.867Z,14.55
2023-01-28T19:16:21.805Z,12.45
2023-01-28T19:18:56.497Z,9.57
2023-01-28T19:21:24.958Z,8.30
2023-01-28T19:24:03.382Z,9.32
2023-01-28T19:26:31.108Z,8.00
2023-01-28T19:28:58.733Z,6.45
2023-01-28T19:31:26.683Z,7.50
2023-01-28T19:33:55.773Z,9.50
2023-01-28T19:36:24.289Z,8.00
2023-01-28T19:38:51.022Z,10.00
2023-01-28T19:41:17.772Z,9.45
2023-01-28T19:43:45.035Z,22.88
2023-01-28T19:46:15.583Z,9.38
2023-01-28T19:48:42.843Z,11.30
2023-01-28T19:51:10.806Z,9.95
2023-01-28T19:53:39.279Z,8.82
2023-01-28T19:56:14.965Z,9.85
2023-01-28T19:58:43.608Z,9.90
2023-01-28T20:01:21.804Z,9.20
2023-01-28T20:03:58.581Z,10.60
2023-01-28T20:06:27.621Z,9.30
2023-01-28T20:08:56.521Z,11.75
2023-01-28T20:11:24.027Z,8.75
2023-01-28T20:13:51.776Z,10.07
2023-01-28T20:16:36.594Z,13.98
2023-01-28T20:19:12.605Z,9.30
2023-01-28T20:21:39.283Z,13.88
2023-01-28T20:24:06.745Z,13.20
2023-01-28T20:26:37.297Z,13.63
2023-01-28T20:29:07.852Z,11.00
2023-01-28T20:31:35.296Z,11.65
2023-01-28T20:34:02.324Z,10.40
2023-01-28T20:36:29.015Z,11.52
2023-01-28T20:38:57.016Z,11.73
2023-01-28T20:41:25.242Z,13.25
2023-01-28T20:43:52.989Z,13.32
2023-01-28T20:46:22.929Z,14.93
2023-01-28T20:48:50.541Z,12.57
2023-01-28T20:51:20.053Z,12.18
2023-01-28T20:53:48.099Z,12.25
2023-01-28T20:56:17.050Z,11.93
2023-01-28T20:58:44.791Z,13.75
2023-01-28T21:01:19.496Z,14.13
2023-01-28T21:03:46.503Z,13.93
2023-01-28T21:06:13.154Z,11.10
2023-01-28T21:08:39.822Z,12.63
2023-01-28T21:11:07.696Z,12.73
2023-01-28T21:13:34.986Z,14.13
2023-01-28T21:16:02.131Z,14.35
2023-01-28T21:18:29.201Z,13.77
2023-01-28T21:20:55.917Z,14.43
2023-01-28T21:23:24.167Z,15.90
2023-01-28T21:25:51.652Z,17.30
2023-01-28T21:28:19.555Z,16.15
2023-01-28T21:30:46.613Z,17.05
2023-01-28T21:33:13.685Z,18.75
2023-01-28T21:35:43.262Z,17.65
2023-01-28T21:38:10.879Z,18.35
2023-01-28T21:40:38.217Z,14.38
2023-01-28T21:43:05.022Z,16.35
2023-01-28T21:45:31.667Z,18.23
2023-01-28T21:47:58.501Z,14.60
2023-01-28T21:50:25.188Z,17.83
2023-01-28T21:52:52.064Z,14.05
2023-01-28T21:55:19.468Z,16.27
2023-01-28T21:57:46.209Z,16.00
2023-01-28T22:00:13.253Z,13.48
2023-01-28T22:02:40.238Z,11.85
2023-01-28T22:05:07.193Z,11.80
2023-01-28T22:07:33.890Z,12.13
2023-01-28T22:10:00.545Z,12.90
2023-01-28T22:12:28.097Z,14.23
2023-01-28T22:14:54.785Z,11.18
2023-01-28T22:17:21.768Z,13.55
2023-01-28T22:19:48.535Z,11.88
2023-01-28T22:22:16.823Z,12.07
2023-01-28T22:24:43.889Z,10.38
2023-01-28T22:27:10.829Z,11.80
2023-01-28T22:29:37.495Z,13.48
2023-01-28T22:32:05.003Z,14.10
2023-01-28T22:34:31.974Z,14.43
2023-01-28T22:36:58.683Z,10.60
2023-01-28T22:39:25.374Z,15.10
2023-01-28T22:41:52.178Z,12.63
2023-01-28T22:44:20.050Z,12.85
2023-01-28T22:46:47.233Z,17.65
2023-01-28T22:49:15.062Z,13.57
2023-01-28T22:51:42.494Z,13.90
2023-01-28T22:54:11.299Z,12.20
2023-01-28T22:56:38.418Z,12.38
2023-01-28T22:59:05.503Z,13.45
2023-01-28T23:01:32.695Z,12.20
2023-01-28T23:03:59.605Z,11.63
2023-01-28T23:06:28.008Z,12.25
2023-01-28T23:08:56.424Z,12.75
2023-01-28T23:11:27.466Z,12.23
2023-01-28T23:14:19.273Z,11.52
2023-01-28T23:17:05.022Z,16.25
2023-01-28T23:19:51.397Z,11.60
2023-01-28T23:22:46.762Z,11.10
2023-01-28T23:25:14.067Z,14.55
2023-01-28T23:27:41.070Z,12.15
2023-01-28T23:30:10.159Z,17.52
2023-01-28T23:32:43.731Z,17.63
2023-01-28T23:35:11.476Z,17.25
2023-01-28T23:37:38.619Z,13.93
2023-01-28T23:40:06.557Z,16.23
2023-01-28T23:42:33.337Z,15.65
2023-01-28T23:45:00.049Z,16.40
2023-01-28T23:47:26.692Z,15.20
2023-01-28T23:49:53.461Z,14.23
2023-01-28T23:52:20.090Z,14.25
2023-01-28T23:54:46.727Z,12.57
2023-01-28T23:57:13.363Z,13.52
2023-01-28T23:59:40.047Z,14.73
